Time;durP1;ratioP1;P1;durP2;ratioP2;P2;SDS_P1;SDS_P2;PMS_P1;PMS_P2;Temp;Humidity;BMP_temperature;BMP_pressure;BME280_temperature;BME280_humidity;BME280_pressure;Samples;Min_cycle;Max_cycle;Signal;HPM_P1;HPM_P2
2022/04/11 00:01:33;;;;;;;9.50;2.90;;;;;;;0.59;92.05;99598.02;103434;1300;22499;-26
2022/04/11 00:03:59;;;;;;;4.10;1.90;;;;;;;0.64;91.55;99597.82;103549;1300;24262;-26
2022/04/11 00:06:24;;;;;;;24.00;2.70;;;;;;;0.60;91.69;99602.05;103537;1300;24471;-26
2022/04/11 00:08:50;;;;;;;8.10;3.10;;;;;;;0.60;91.71;99597.80;103527;1300;24356;-25
2022/04/11 00:11:16;;;;;;;4.90;1.60;;;;;;;0.56;92.41;99599.41;103569;1300;24244;-28
2022/04/11 00:13:42;;;;;;;4.90;2.10;;;;;;;0.72;91.87;99602.26;103559;1300;24446;-29
2022/04/11 00:16:08;;;;;;;4.90;2.00;;;;;;;0.62;92.02;99597.14;103625;1300;23596;-29
2022/04/11 00:18:34;;;;;;;4.50;0.90;;;;;;;0.65;91.96;99598.27;103557;1300;23762;-26
2022/04/11 00:21:00;;;;;;;8.60;1.30;;;;;;;0.69;91.46;99598.98;103536;1300;22513;-26
2022/04/11 00:23:26;;;;;;;3.20;1.10;;;;;;;0.59;91.77;99601.43;103510;1300;24302;-26
2022/04/11 00:25:51;;;;;;;4.70;2.30;;;;;;;0.70;91.38;99602.27;103525;1300;23628;-26
2022/04/11 00:28:17;;;;;;;2.80;2.10;;;;;;;0.65;91.23;99604.40;103510;1300;23812;-25
2022/04/11 00:30:43;;;;;;;3.10;1.50;;;;;;;0.61;91.38;99598.59;103486;1300;24367;-25
2022/04/11 00:33:09;;;;;;;1.40;0.80;;;;;;;0.63;91.38;99601.80;103581;1300;23634;-28
2022/04/11 00:35:34;;;;;;;12.30;1.80;;;;;;;0.57;91.78;99602.05;103544;1300;24224;-29
2022/04/11 00:38:00;;;;;;;3.90;1.40;;;;;;;0.53;92.17;99602.59;103522;1300;24240;-30
2022/04/11 00:40:26;;;;;;;1.70;0.90;;;;;;;0.50;92.82;99603.88;103538;1300;24285;-26
2022/04/11 00:42:51;;;;;;;4.50;2.30;;;;;;;0.56;93.02;99605.70;103585;1300;24256;-30
2022/04/11 00:45:17;;;;;;;2.90;1.20;;;;;;;0.66;92.89;99607.13;103530;1300;23599;-28
2022/04/11 00:47:45;;;;;;;3.80;2.10;;;;;;;0.78;92.37;99607.92;103534;1300;24399;-28
2022/04/11 00:50:11;;;;;;;7.20;3.30;;;;;;;0.79;92.17;99615.91;103519;1300;24260;-31
2022/04/11 00:52:40;;;;;;;2.50;0.90;;;;;;;0.73;92.29;99615.76;103530;1300;24324;-26
2022/04/11 00:55:08;;;;;;;5.10;1.90;;;;;;;0.82;92.02;99620.65;103589;1300;24228;-29
2022/04/11 00:57:33;;;;;;;1.70;0.90;;;;;;;0.67;92.52;99623.30;103573;1302;25017;-28
2022/04/11 00:59:59;;;;;;;9.80;3.10;;;;;;;0.67;92.72;99627.52;103548;1300;23979;-27
2022/04/11 01:02:26;;;;;;;7.00;2.20;;;;;;;0.58;92.74;99625.44;103591;1300;24271;-25
2022/04/11 01:04:51;;;;;;;3.90;2.20;;;;;;;0.54;92.79;99626.16;103506;1300;24212;-30
2022/04/11 01:07:19;;;;;;;9.90;2.70;;;;;;;0.50;92.90;99626.30;103406;1301;24260;-27
2022/04/11 01:09:45;;;;;;;4.80;2.40;;;;;;;0.48;93.17;99626.14;103579;1300;22531;-28
2022/04/11 01:12:11;;;;;;;6.50;2.10;;;;;;;0.51;93.07;99629.37;103564;1299;24365;-26
2022/04/11 01:14:37;;;;;;;5.60;1.80;;;;;;;0.51;93.47;99630.13;103529;1300;24062;-29
2022/04/11 01:17:03;;;;;;;4.30;2.10;;;;;;;0.69;92.81;99629.97;103524;1300;24255;-26
2022/04/11 01:19:29;;;;;;;5.80;2.50;;;;;;;0.58;93.17;99633.58;103546;1300;24366;-26
2022/04/11 01:21:54;;;;;;;2.20;1.40;;;;;;;0.57;94.09;99633.44;103535;1300;24459;-28
2022/04/11 01:24:20;;;;;;;5.30;2.70;;;;;;;0.64;93.66;99633.55;103457;1300;24218;-31
2022/04/11 01:26:47;;;;;;;3.70;1.90;;;;;;;0.65;93.37;99633.98;103525;1300;24222;-28
2022/04/11 01:29:13;;;;;;;2.00;0.80;;;;;;;0.59;93.97;99634.91;103571;1300;23581;-27
2022/04/11 01:31:39;;;;;;;2.50;1.80;;;;;;;0.80;93.29;99637.92;103552;1300;24214;-30
2022/04/11 01:34:05;;;;;;;2.80;2.20;;;;;;;0.93;92.21;99636.48;103586;1300;22508;-29
2022/04/11 01:36:30;;;;;;;5.90;2.30;;;;;;;1.02;91.65;99636.72;103471;1300;24318;-30
2022/04/11 01:38:56;;;;;;;4.40;1.40;;;;;;;0.76;91.81;99637.52;103520;1300;24360;-25
2022/04/11 01:41:21;;;;;;;2.90;1.80;;;;;;;0.69;92.32;99638.48;103464;1300;24206;-31
2022/04/11 01:43:47;;;;;;;2.50;1.40;;;;;;;0.68;92.07;99640.14;103499;1300;24237;-26
2022/04/11 01:46:13;;;;;;;2.70;2.00;;;;;;;0.46;93.13;99642.66;103536;1300;24238;-29
2022/04/11 01:48:39;;;;;;;3.80;2.00;;;;;;;0.62;92.41;99643.08;103504;1300;24247;-29
2022/04/11 01:51:05;;;;;;;4.90;1.10;;;;;;;0.53;92.40;99648.96;103558;1300;24321;-26
2022/04/11 01:53:31;;;;;;;2.90;1.40;;;;;;;0.52;92.24;99646.08;103578;1301;24260;-27
2022/04/11 01:55:57;;;;;;;6.60;2.60;;;;;;;0.48;92.12;99650.39;103515;1300;24302;-28
2022/04/11 01:58:22;;;;;;;2.00;1.10;;;;;;;0.28;92.80;99653.29;103546;1300;24287;-25
2022/04/11 02:00:48;;;;;;;5.20;2.10;;;;;;;0.25;93.11;99656.36;103598;1302;24217;-25
2022/04/11 02:03:14;;;;;;;2.80;1.10;;;;;;;0.30;92.87;99657.52;103506;1300;24375;-25
2022/04/11 02:05:40;;;;;;;2.40;1.40;;;;;;;0.07;93.25;99661.83;103520;1300;24357;-26
2022/04/11 02:08:07;;;;;;;15.50;2.20;;;;;;;0.02;93.59;99661.73;103518;1300;25038;-27
2022/04/11 02:10:35;;;;;;;3.80;2.10;;;;;;;-0.07;93.97;99661.70;103486;1300;24353;-31
2022/04/11 02:13:01;;;;;;;6.60;2.40;;;;;;;-0.10;93.76;99662.13;103612;1302;22516;-26
2022/04/11 02:15:27;;;;;;;2.30;1.10;;;;;;;-0.11;93.67;99662.55;103583;1302;24256;-29
2022/04/11 02:17:53;;;;;;;2.70;1.20;;;;;;;-0.21;93.89;99668.82;103593;1302;24324;-26
2022/04/11 02:20:19;;;;;;;4.60;1.60;;;;;;;-0.12;94.05;99670.05;103594;1299;24252;-26
2022/04/11 02:22:47;;;;;;;5.80;2.00;;;;;;;-0.31;94.87;99674.89;103593;1300;24300;-28
2022/04/11 02:25:13;;;;;;;3.80;2.30;;;;;;;-0.35;95.13;99675.23;103574;1302;23599;-26
2022/04/11 02:27:39;;;;;;;8.80;2.20;;;;;;;-0.53;95.94;99677.12;103564;1300;25124;-29
2022/04/11 02:30:05;;;;;;;4.00;1.80;;;;;;;-0.47;96.17;99678.09;103569;1301;24253;-25
2022/04/11 02:32:31;;;;;;;2.00;0.70;;;;;;;-0.47;95.98;99677.02;103567;1300;24230;-28
2022/04/11 02:34:56;;;;;;;2.40;1.40;;;;;;;-0.36;95.68;99678.11;103534;1300;24003;-30
2022/04/11 02:37:22;;;;;;;6.80;1.30;;;;;;;-0.45;95.59;99677.17;103501;1300;24238;-29
2022/04/11 02:39:48;;;;;;;1.70;1.10;;;;;;;-0.44;95.43;99676.98;103536;1301;24319;-25
2022/04/11 02:42:20;;;;;;;2.70;0.90;;;;;;;-0.46;95.61;99676.58;103580;1300;24241;-25
2022/04/11 02:44:45;;;;;;;1.30;0.80;;;;;;;-0.38;95.56;99679.81;103591;1302;26340;-30
2022/04/11 02:47:11;;;;;;;1.20;0.90;;;;;;;-0.51;95.93;99678.71;103584;1302;24434;-28
2022/04/11 02:49:36;;;;;;;1.30;0.90;;;;;;;-0.32;95.66;99677.94;103416;1302;24218;-26
2022/04/11 02:52:03;;;;;;;1.50;0.80;;;;;;;-0.36;95.64;99679.86;103552;1302;24315;-26
2022/04/11 02:54:29;;;;;;;2.20;0.90;;;;;;;-0.29;95.28;99676.15;103539;1300;24269;-26
2022/04/11 02:56:54;;;;;;;2.00;1.30;;;;;;;-0.38;95.72;99674.87;103549;1300;24220;-26
2022/04/11 02:59:20;;;;;;;0.80;0.40;;;;;;;-0.34;95.66;99675.83;103578;1300;24988;-30
2022/04/11 03:01:46;;;;;;;1.80;0.70;;;;;;;-0.35;95.54;99675.90;103507;1301;24238;-26
2022/04/11 03:04:11;;;;;;;1.50;1.00;;;;;;;-0.37;95.63;99678.72;103597;1301;24216;-28
2022/04/11 03:06:37;;;;;;;3.90;0.80;;;;;;;-0.39;95.81;99670.63;103589;1300;24243;-30
2022/04/11 03:09:03;;;;;;;2.10;1.10;;;;;;;-0.23;95.54;99676.34;103613;1302;24214;-30
2022/04/11 03:11:28;;;;;;;2.90;1.20;;;;;;;-0.14;94.84;99678.27;103622;1302;24222;-26
2022/04/11 03:13:54;;;;;;;0.50;0.50;;;;;;;-0.26;94.96;99681.41;103571;1300;25127;-26
2022/04/11 03:16:19;;;;;;;2.80;1.00;;;;;;;-0.38;95.10;99685.13;103569;1300;24238;-30
2022/04/11 03:18:45;;;;;;;11.70;0.60;;;;;;;-0.42;95.75;99687.34;103565;1300;25079;-29
2022/04/11 03:21:11;;;;;;;1.50;0.60;;;;;;;-0.49;95.76;99690.52;103510;1302;23779;-28
2022/04/11 03:23:36;;;;;;;2.00;1.00;;;;;;;-0.44;95.82;99691.96;103555;1300;23952;-26
2022/04/11 03:26:02;;;;;;;1.40;0.70;;;;;;;-0.55;95.98;99697.14;103547;1300;25026;-28
2022/04/11 03:28:27;;;;;;;16.70;1.60;;;;;;;-0.37;95.60;99694.52;103527;1300;24218;-25
2022/04/11 03:30:53;;;;;;;0.90;0.40;;;;;;;-0.63;96.26;99695.30;103514;1302;24288;-28
2022/04/11 03:33:19;;;;;;;2.00;0.90;;;;;;;-0.56;96.67;99703.41;103565;1300;24437;-26
2022/04/11 03:35:45;;;;;;;1.40;1.00;;;;;;;-0.55;96.66;99702.40;103570;1300;24253;-30
2022/04/11 03:38:11;;;;;;;0.80;0.60;;;;;;;-0.50;96.54;99703.65;103563;1300;24293;-28
2022/04/11 03:40:37;;;;;;;3.00;0.60;;;;;;;-0.66;97.09;99705.88;103554;1300;24369;-26
2022/04/11 03:43:04;;;;;;;0.90;0.60;;;;;;;-0.69;97.62;99709.47;103505;1300;24256;-28
2022/04/11 03:45:29;;;;;;;2.10;1.10;;;;;;;-0.48;97.74;99712.09;103498;1302;24227;-29
2022/04/11 03:47:55;;;;;;;1.40;1.30;;;;;;;-0.38;97.49;99710.08;103541;1300;23556;-27
2022/04/11 03:50:21;;;;;;;4.40;1.00;;;;;;;-0.33;97.26;99713.09;103532;1300;24277;-29
2022/04/11 03:52:47;;;;;;;2.30;1.00;;;;;;;-0.39;97.17;99711.73;103575;1302;24213;-28
2022/04/11 03:55:12;;;;;;;0.90;0.60;;;;;;;-0.48;97.73;99709.46;103568;1302;24317;-25
2022/04/11 03:57:38;;;;;;;3.30;1.30;;;;;;;-0.38;98.08;99705.73;103536;1300;24371;-29
2022/04/11 04:00:05;;;;;;;1.40;0.70;;;;;;;-0.51;98.46;99709.72;103522;1300;24212;-28
2022/04/11 04:02:30;;;;;;;3.20;1.70;;;;;;;-0.51;99.07;99706.33;103600;1300;24250;-25
2022/04/11 04:04:56;;;;;;;2.70;1.00;;;;;;;-0.47;99.15;99702.34;103520;1300;24240;-29
2022/04/11 04:07:22;;;;;;;5.00;2.30;;;;;;;-0.51;99.87;99707.24;103506;1302;24240;-26
2022/04/11 04:09:48;;;;;;;4.60;2.00;;;;;;;-0.32;99.52;99709.09;103541;1300;24266;-26
2022/04/11 04:12:14;;;;;;;2.70;1.60;;;;;;;-0.33;99.27;99709.73;103577;1300;24342;-26
2022/04/11 04:14:41;;;;;;;4.90;2.60;;;;;;;-0.38;99.31;99711.56;103229;1302;503979;-28
2022/04/11 04:17:07;;;;;;;1.30;1.20;;;;;;;-0.24;99.29;99718.46;103555;1300;24238;-29
2022/04/11 04:19:32;;;;;;;3.60;1.90;;;;;;;-0.05;98.85;99719.83;103518;1300;24472;-29
2022/04/11 04:21:58;;;;;;;3.40;2.30;;;;;;;-0.07;98.06;99718.95;103604;1301;24313;-31
2022/04/11 04:24:24;;;;;;;3.20;1.30;;;;;;;0.01;97.96;99721.86;103580;1302;23603;-29
2022/04/11 04:26:50;;;;;;;3.20;1.50;;;;;;;0.08;97.79;99723.58;103544;1302;24371;-24
2022/04/11 04:29:16;;;;;;;5.80;3.20;;;;;;;0.16;97.13;99722.89;103566;1302;24408;-29
2022/04/11 04:31:43;;;;;;;3.20;2.20;;;;;;;0.11;97.20;99725.59;103586;1300;24247;-30
2022/04/11 04:34:09;;;;;;;2.30;1.80;;;;;;;-0.01;97.37;99727.92;103568;1300;24399;-29
2022/04/11 04:36:34;;;;;;;5.00;3.10;;;;;;;-0.03;97.99;99731.96;103557;1300;24277;-30
2022/04/11 04:39:02;;;;;;;2.40;1.50;;;;;;;-0.01;98.11;99731.14;103549;1302;24251;-26
2022/04/11 04:41:28;;;;;;;2.80;2.30;;;;;;;0.11;98.42;99733.67;103596;1300;24267;-29
2022/04/11 04:43:54;;;;;;;10.30;3.50;;;;;;;0.25;97.51;99735.04;103541;1300;23828;-29
2022/04/11 04:46:20;;;;;;;2.50;1.40;;;;;;;0.28;97.25;99736.44;103520;1300;24363;-29
2022/04/11 04:48:45;;;;;;;7.30;2.30;;;;;;;0.26;97.40;99736.34;103559;1302;24364;-28
2022/04/11 04:51:11;;;;;;;3.50;2.80;;;;;;;0.22;97.73;99735.29;103300;1302;24324;-26
2022/04/11 04:53:37;;;;;;;4.90;1.50;;;;;;;0.45;97.04;99736.45;103518;1302;23649;-28
2022/04/11 04:56:03;;;;;;;2.10;1.60;;;;;;;0.46;97.00;99735.80;103548;1300;24294;-26
2022/04/11 04:58:29;;;;;;;2.70;1.30;;;;;;;0.49;96.45;99735.91;103574;1302;24192;-31
2022/04/11 05:00:55;;;;;;;7.40;3.40;;;;;;;0.43;96.55;99733.80;103546;1302;24247;-26
2022/04/11 05:03:20;;;;;;;3.30;1.50;;;;;;;0.56;96.43;99737.73;103502;1300;24276;-30
2022/04/11 05:05:46;;;;;;;4.00;3.20;;;;;;;0.57;96.38;99739.05;103532;1300;22493;-26
2022/04/11 05:08:12;;;;;;;2.40;1.80;;;;;;;0.60;96.91;99746.33;103535;1301;24212;-30
2022/04/11 05:10:38;;;;;;;3.70;2.50;;;;;;;0.99;95.61;99748.10;103602;1300;24252;-26
2022/04/11 05:13:04;;;;;;;4.10;3.20;;;;;;;1.01;94.84;99752.84;103545;1302;24369;-26
2022/04/11 05:15:29;;;;;;;3.60;2.40;;;;;;;1.24;93.63;99757.31;103517;1301;24197;-26
2022/04/11 05:17:55;;;;;;;4.30;2.30;;;;;;;1.03;94.25;99756.95;103606;1300;24224;-27
2022/04/11 05:20:22;;;;;;;2.70;2.00;;;;;;;0.93;94.87;99755.66;103587;1302;24365;-30
2022/04/11 05:22:47;;;;;;;5.60;2.90;;;;;;;1.44;93.94;99752.80;103556;1300;24267;-27
2022/04/11 05:25:13;;;;;;;3.80;2.20;;;;;;;1.23;93.04;99754.36;103585;1300;24245;-31
2022/04/11 05:27:39;;;;;;;2.90;2.00;;;;;;;1.30;93.98;99755.52;103529;1301;24217;-30
2022/04/11 05:30:05;;;;;;;8.50;2.50;;;;;;;1.71;91.81;99754.69;103519;1300;24365;-25
2022/04/11 05:32:33;;;;;;;3.80;2.70;;;;;;;1.93;90.28;99757.38;103598;1300;24254;-29
2022/04/11 05:35:00;;;;;;;10.10;2.50;;;;;;;1.74;90.70;99754.50;103613;1300;22806;-28
2022/04/11 05:37:26;;;;;;;4.90;2.60;;;;;;;1.84;90.71;99761.89;103481;1300;24192;-26
2022/04/11 05:39:51;;;;;;;2.60;1.90;;;;;;;1.74;91.35;99762.92;103603;1300;24269;-28
2022/04/11 05:42:17;;;;;;;4.20;3.60;;;;;;;2.09;90.07;99761.14;103544;1299;22666;-26
2022/04/11 05:44:42;;;;;;;3.60;2.00;;;;;;;2.18;88.47;99761.95;103566;1300;24213;-29
2022/04/11 05:47:08;;;;;;;4.60;2.20;;;;;;;2.19;88.33;99763.97;103592;1300;24324;-25
2022/04/11 05:49:34;;;;;;;4.40;1.40;;;;;;;2.10;88.93;99759.16;103468;1300;22514;-29
2022/04/11 05:52:00;;;;;;;1.70;1.40;;;;;;;2.21;88.52;99759.91;103514;1300;24288;-29
2022/04/11 05:54:26;;;;;;;4.30;1.70;;;;;;;2.15;89.15;99766.08;103494;1300;24241;-25
2022/04/11 05:56:52;;;;;;;2.70;2.00;;;;;;;2.07;89.64;99764.91;103549;1302;22516;-28
2022/04/11 05:59:18;;;;;;;1.50;1.20;;;;;;;2.37;89.38;99769.44;103516;1300;24269;-24
2022/04/11 06:01:44;;;;;;;4.60;2.90;;;;;;;2.41;87.85;99761.02;103587;1300;24212;-25
2022/04/11 06:04:09;;;;;;;2.70;2.10;;;;;;;2.51;87.71;99762.61;103426;1302;23573;-30
2022/04/11 06:06:36;;;;;;;3.30;2.10;;;;;;;2.73;87.44;99754.61;103502;1302;24256;-27
2022/04/11 06:09:03;;;;;;;3.40;2.50;;;;;;;2.92;84.40;99756.77;103411;1302;23801;-25
2022/04/11 06:11:29;;;;;;;6.00;2.50;;;;;;;3.08;84.54;99757.13;103578;1302;22631;-31
2022/04/11 06:13:54;;;;;;;4.00;2.10;;;;;;;2.86;85.49;99763.14;103553;1300;24305;-30
2022/04/11 06:16:20;;;;;;;3.00;1.90;;;;;;;2.80;85.62;99760.52;103547;1300;24240;-25
2022/04/11 06:18:46;;;;;;;3.40;2.60;;;;;;;2.92;86.54;99756.80;103615;1302;24213;-27
2022/04/11 06:21:11;;;;;;;3.60;1.20;;;;;;;3.31;83.33;99758.17;103581;1300;24433;-27
2022/04/11 06:23:37;;;;;;;14.10;1.60;;;;;;;3.09;84.74;99758.98;103575;1302;24250;-27
2022/04/11 06:26:03;;;;;;;3.10;1.70;;;;;;;3.41;83.74;99760.78;103421;1300;24212;-29
2022/04/11 06:28:29;;;;;;;6.20;2.20;;;;;;;3.37;83.72;99761.67;103543;1300;24248;-29
2022/04/11 06:30:55;;;;;;;2.40;1.10;;;;;;;3.27;83.92;99762.81;103565;1300;24420;-29
2022/04/11 06:33:20;;;;;;;3.60;1.30;;;;;;;3.26;83.95;99761.27;103497;1300;24303;-25
2022/04/11 06:35:46;;;;;;;4.80;2.20;;;;;;;3.52;83.91;99763.90;103527;1301;22502;-31
2022/04/11 06:38:12;;;;;;;6.30;2.20;;;;;;;3.60;83.01;99762.21;103528;1300;24984;-29
2022/04/11 06:40:38;;;;;;;3.60;1.70;;;;;;;3.95;81.23;99766.05;103528;1301;22518;-29
2022/04/11 06:43:03;;;;;;;12.00;2.00;;;;;;;3.80;81.11;99764.39;103499;1300;24214;-25
2022/04/11 06:45:29;;;;;;;7.50;3.10;;;;;;;3.86;81.38;99767.08;103605;1300;24223;-29
2022/04/11 06:47:55;;;;;;;3.10;1.60;;;;;;;4.44;79.47;99770.77;103574;1300;24238;-26
2022/04/11 06:50:21;;;;;;;2.10;1.30;;;;;;;4.39;79.36;99775.14;103455;1302;24309;-28
2022/04/11 06:52:46;;;;;;;3.70;2.20;;;;;;;4.29;79.86;99776.78;103520;1300;22518;-29
2022/04/11 06:55:12;;;;;;;6.70;2.10;;;;;;;4.72;79.55;99775.73;103534;1301;24248;-27
2022/04/11 06:57:38;;;;;;;3.00;1.90;;;;;;;5.17;76.07;99776.85;103581;1300;24359;-28
2022/04/11 07:00:05;;;;;;;2.40;1.50;;;;;;;5.14;75.70;99778.09;103577;1302;24241;-26
2022/04/11 07:02:30;;;;;;;3.70;1.90;;;;;;;5.08;75.91;99777.48;103549;1300;24244;-30
2022/04/11 07:04:56;;;;;;;4.90;1.60;;;;;;;5.69;73.97;99783.02;103406;1302;22779;-25
2022/04/11 07:07:22;;;;;;;4.60;1.70;;;;;;;5.13;74.18;99782.92;103567;1302;24360;-25
2022/04/11 07:09:47;;;;;;;2.50;1.40;;;;;;;5.21;75.46;99780.95;103502;1302;22637;-30
2022/04/11 07:12:13;;;;;;;3.20;1.90;;;;;;;5.63;74.25;99785.98;103540;1300;24230;-29
2022/04/11 07:14:39;;;;;;;9.50;2.00;;;;;;;5.72;73.85;99783.64;103491;1300;24293;-28
2022/04/11 07:17:05;;;;;;;4.90;2.20;;;;;;;5.80;73.60;99786.48;103510;1300;24308;-28
2022/04/11 07:19:31;;;;;;;2.50;1.10;;;;;;;5.68;74.66;99786.14;103563;1300;24196;-27
2022/04/11 07:21:57;;;;;;;2.90;1.40;;;;;;;5.83;73.93;99786.80;103531;1300;24221;-28
2022/04/11 07:24:23;;;;;;;4.40;1.50;;;;;;;5.42;74.13;99790.58;103549;1300;24251;-28
2022/04/11 07:26:49;;;;;;;13.00;1.90;;;;;;;5.32;74.39;99787.66;103494;1300;24218;-29
2022/04/11 07:29:15;;;;;;;2.90;1.30;;;;;;;5.30;74.22;99787.98;103570;1300;22493;-25
2022/04/11 07:31:41;;;;;;;2.70;1.40;;;;;;;5.34;73.98;99792.39;103424;1302;24365;-29
2022/04/11 07:34:06;;;;;;;5.70;1.50;;;;;;;5.37;74.74;99794.23;103473;1302;24298;-28
2022/04/11 07:36:33;;;;;;;4.00;2.00;;;;;;;5.59;72.55;99793.58;103571;1300;23601;-28
2022/04/11 07:38:59;;;;;;;2.20;1.70;;;;;;;5.36;73.32;99791.66;103535;1302;24365;-25
2022/04/11 07:41:24;;;;;;;2.60;1.80;;;;;;;5.41;73.68;99798.13;103558;1302;23763;-25
2022/04/11 07:43:53;;;;;;;2.50;1.60;;;;;;;5.65;74.33;99794.81;103595;1302;24391;-25
2022/04/11 07:46:19;;;;;;;2.00;1.30;;;;;;;6.03;72.95;99803.61;103574;1300;24228;-25
2022/04/11 07:48:45;;;;;;;2.90;1.70;;;;;;;6.14;71.50;99800.16;103522;1302;22846;-29
2022/04/11 07:51:11;;;;;;;4.90;1.80;;;;;;;6.07;71.75;99802.83;103579;1300;24416;-27
2022/04/11 07:53:36;;;;;;;3.50;1.70;;;;;;;6.31;72.08;99800.67;103577;1302;23787;-25
2022/04/11 07:56:02;;;;;;;5.20;1.50;;;;;;;6.46;70.41;99802.67;103543;1302;22643;-29
2022/04/11 07:58:28;;;;;;;4.00;1.70;;;;;;;6.58;69.97;99803.73;103513;1300;24401;-25
2022/04/11 08:00:54;;;;;;;2.80;0.90;;;;;;;6.59;69.58;99807.93;103481;1301;24218;-25
2022/04/11 08:03:20;;;;;;;2.10;1.00;;;;;;;6.58;69.92;99809.97;103532;1301;24301;-29
2022/04/11 08:05:46;;;;;;;3.50;1.40;;;;;;;6.73;69.53;99804.98;103561;1300;24316;-26
2022/04/11 08:08:12;;;;;;;4.90;1.30;;;;;;;6.73;69.30;99806.76;103467;1302;24203;-28
2022/04/11 08:10:38;;;;;;;5.00;2.20;;;;;;;6.89;68.90;99811.13;103440;1300;24381;-26
2022/04/11 08:13:04;;;;;;;3.60;1.10;;;;;;;7.30;67.36;99808.91;103591;1300;24383;-26
2022/04/11 08:15:30;;;;;;;7.30;1.10;;;;;;;7.27;67.59;99813.11;103620;1300;24260;-29
2022/04/11 08:17:56;;;;;;;1.50;1.10;;;;;;;7.22;67.88;99813.04;103638;1300;25441;-29
2022/04/11 08:20:23;;;;;;;1.20;0.80;;;;;;;6.93;67.38;99815.57;103485;1300;24275;-28
2022/04/11 08:22:49;;;;;;;4.00;1.30;;;;;;;7.08;67.75;99817.33;103574;1300;24323;-29
2022/04/11 08:25:14;;;;;;;4.00;0.60;;;;;;;7.44;66.39;99806.27;103555;1300;24228;-28
2022/04/11 08:27:41;;;;;;;2.30;1.20;;;;;;;7.44;64.74;99811.52;103567;1300;22616;-29
2022/04/11 08:30:09;;;;;;;2.90;1.30;;;;;;;7.45;65.01;99809.29;103577;1300;24214;-29
2022/04/11 08:32:38;;;;;;;15.40;1.90;;;;;;;7.75;65.12;99810.55;103538;1300;24404;-25
2022/04/11 08:35:04;;;;;;;4.40;1.00;;;;;;;7.73;64.50;99809.81;103560;1300;24222;-26
2022/04/11 08:37:29;;;;;;;1.70;0.80;;;;;;;7.67;65.12;99815.54;103524;1300;24242;-25
2022/04/11 08:39:55;;;;;;;4.50;1.00;;;;;;;7.68;64.63;99814.94;103575;1302;24349;-25
2022/04/11 08:42:23;;;;;;;4.60;1.10;;;;;;;8.10;64.73;99817.83;103530;1302;24227;-25
2022/04/11 08:44:50;;;;;;;1.30;0.80;;;;;;;8.41;62.74;99814.67;103472;1300;24252;-28
2022/04/11 08:47:16;;;;;;;6.50;0.40;;;;;;;8.22;62.94;99816.11;103350;1300;22740;-31
2022/04/11 08:49:43;;;;;;;1.60;0.60;;;;;;;8.20;62.12;99823.27;103510;1302;24251;-25
2022/04/11 08:52:09;;;;;;;2.60;0.90;;;;;;;8.13;62.30;99821.06;103564;1300;24227;-31
2022/04/11 08:54:35;;;;;;;2.30;0.80;;;;;;;8.15;62.41;99814.38;103599;1300;24226;-29
2022/04/11 08:57:01;;;;;;;1.80;1.00;;;;;;;8.43;61.11;99817.70;103493;1300;24372;-28
2022/04/11 08:59:26;;;;;;;4.60;1.30;;;;;;;8.47;61.83;99817.59;103481;1300;22634;-25
2022/04/11 09:01:52;;;;;;;1.90;0.90;;;;;;;8.58;60.78;99814.53;103512;1300;24326;-31
2022/04/11 09:04:18;;;;;;;5.20;0.50;;;;;;;8.65;61.40;99814.12;103558;1300;24192;-28
2022/04/11 09:06:54;;;;;;;1.40;1.10;;;;;;;8.92;59.42;99811.90;103516;1300;24265;-27
2022/04/11 09:09:28;;;;;;;1.10;0.50;;;;;;;9.01;60.03;99812.33;103566;1300;22504;-27
2022/04/11 09:11:55;;;;;;;2.80;0.90;;;;;;;9.51;56.90;99810.17;103545;1300;24368;-31
2022/04/11 09:14:22;;;;;;;2.20;0.50;;;;;;;9.10;58.25;99808.09;103522;1300;24760;-27
2022/04/11 09:16:47;;;;;;;0.70;0.40;;;;;;;9.55;57.12;99810.20;103504;1302;24237;-31
2022/04/11 09:19:20;;;;;;;2.90;1.10;;;;;;;9.40;56.80;99808.92;103559;1300;22752;-25
2022/04/11 09:21:45;;;;;;;0.50;0.50;;;;;;;9.57;56.56;99804.64;103551;1300;24247;-29
2022/04/11 09:24:13;;;;;;;2.30;1.20;;;;;;;9.73;55.20;99805.54;103588;1300;24273;-25
2022/04/11 09:26:40;;;;;;;2.00;0.60;;;;;;;9.69;54.51;99805.70;103555;1300;22603;-24
2022/04/11 09:29:06;;;;;;;3.30;0.40;;;;;;;9.36;54.92;99811.00;103570;1300;24222;-28
2022/04/11 09:31:32;;;;;;;3.70;0.70;;;;;;;9.56;54.52;99808.05;103523;1300;22753;-31
2022/04/11 09:34:00;;;;;;;1.00;0.60;;;;;;;9.42;54.06;99806.20;103497;1300;24484;-29
2022/04/11 09:36:43;;;;;;;1.20;0.50;;;;;;;9.85;52.36;99805.06;103596;1300;24195;-25
2022/04/11 09:39:09;;;;;;;3.10;0.60;;;;;;;10.50;50.25;99808.71;103544;1300;24313;-29
2022/04/11 09:41:38;;;;;;;0.70;0.40;;;;;;;10.01;52.03;99814.80;103553;1300;24355;-29
2022/04/11 09:44:11;;;;;;;7.10;0.80;;;;;;;9.94;53.21;99804.18;103564;1300;25304;-29
2022/04/11 09:46:43;;;;;;;1.40;0.50;;;;;;;10.17;51.40;99809.84;103564;1300;23867;-29
2022/04/11 09:49:09;;;;;;;1.30;0.40;;;;;;;9.94;51.29;99804.73;103624;1300;24031;-24
2022/04/11 09:51:35;;;;;;;1.80;0.30;;;;;;;10.08;50.08;99805.17;103517;1300;22820;-27
2022/04/11 09:54:03;;;;;;;1.50;0.70;;;;;;;9.68;52.02;99804.70;103561;1300;24496;-29
2022/04/11 09:56:29;;;;;;;0.20;0.10;;;;;;;9.02;54.20;99804.09;103530;1300;24226;-31
2022/04/11 09:58:55;;;;;;;0.50;0.30;;;;;;;9.14;55.06;99803.74;103500;1302;24196;-24
2022/04/11 10:01:21;;;;;;;1.90;0.60;;;;;;;9.31;54.34;99802.05;103538;1300;24312;-28
2022/04/11 10:03:47;;;;;;;4.20;2.90;;;;;;;8.96;55.16;99803.64;103530;1300;24237;-25
2022/04/11 10:06:12;;;;;;;1.40;0.70;;;;;;;8.93;54.93;99801.36;103538;1300;24247;-31
2022/04/11 10:08:38;;;;;;;1.30;0.60;;;;;;;8.40;55.68;99803.79;103526;1300;24344;-31
2022/04/11 10:11:04;;;;;;;1.00;0.50;;;;;;;8.93;55.25;99800.45;103464;1300;22513;-31
2022/04/11 10:13:31;;;;;;;1.10;0.60;;;;;;;9.32;54.61;99793.56;103542;1300;23591;-31
2022/04/11 10:15:57;;;;;;;1.60;0.40;;;;;;;10.14;51.54;99795.52;103578;1300;22631;-25
2022/04/11 10:18:25;;;;;;;0.90;0.40;;;;;;;10.36;50.18;99795.41;103532;1300;24241;-26
2022/04/11 10:20:55;;;;;;;4.60;0.90;;;;;;;9.71;52.48;99796.55;103609;1300;22597;-29
2022/04/11 10:23:30;;;;;;;1.60;0.30;;;;;;;9.85;52.78;99792.39;103610;1300;24192;-25
2022/04/11 10:25:59;;;;;;;3.80;0.70;;;;;;;10.14;51.26;99787.14;103522;1300;22503;-25
2022/04/11 10:28:26;;;;;;;4.10;0.40;;;;;;;10.28;49.64;99787.77;103593;1300;22854;-24
2022/04/11 10:30:58;;;;;;;2.40;0.40;;;;;;;10.92;49.10;99785.75;103571;1300;24327;-25
2022/04/11 10:33:47;;;;;;;0.50;0.30;;;;;;;12.00;45.55;99778.02;103545;1300;22977;-25
2022/04/11 10:36:20;;;;;;;0.50;0.40;;;;;;;11.94;44.89;99777.42;103540;1298;23873;-29
2022/04/11 10:39:09;;;;;;;1.00;0.60;;;;;;;12.10;43.19;99775.36;103583;1300;23804;-30
2022/04/11 10:41:59;;;;;;;3.40;0.60;;;;;;;10.85;46.96;99775.59;103553;1300;24398;-30
2022/04/11 10:44:32;;;;;;;0.50;0.20;;;;;;;10.48;47.37;99777.08;103512;1300;24470;-30
2022/04/11 10:47:20;;;;;;;1.10;0.40;;;;;;;10.83;47.17;99775.86;103589;1300;22895;-25
2022/04/11 10:49:49;;;;;;;0.50;0.30;;;;;;;10.23;48.69;99780.33;103538;1300;24511;-25
2022/04/11 10:52:32;;;;;;;7.10;0.80;;;;;;;9.23;49.89;99781.03;103544;1300;24224;-24
2022/04/11 10:55:04;;;;;;;0.40;0.20;;;;;;;9.34;51.65;99779.58;103531;1300;24014;-28
2022/04/11 10:57:32;;;;;;;1.50;0.60;;;;;;;9.78;51.29;99777.59;103605;1300;22966;-29
2022/04/11 11:00:07;;;;;;;1.40;0.30;;;;;;;9.91;50.21;99779.67;103558;1300;22791;-25
2022/04/11 11:02:39;;;;;;;1.00;0.50;;;;;;;9.18;52.32;99785.00;103543;1300;24198;-25
2022/04/11 11:05:21;;;;;;;2.20;0.60;;;;;;;8.90;51.54;99784.35;103601;1300;23946;-29
2022/04/11 11:07:47;;;;;;;0.70;0.30;;;;;;;8.89;53.39;99779.28;103555;1300;24212;-29
2022/04/11 11:10:17;;;;;;;0.90;0.30;;;;;;;9.14;51.52;99776.00;103589;1300;24359;-28
2022/04/11 11:12:43;;;;;;;0.80;0.40;;;;;;;8.51;53.31;99784.28;103684;1300;24243;-29
2022/04/11 11:15:16;;;;;;;0.90;0.30;;;;;;;7.91;54.43;99781.25;103481;1302;23810;-25
2022/04/11 11:17:58;;;;;;;1.00;0.30;;;;;;;7.85;54.62;99776.68;103634;1300;24216;-28
2022/04/11 11:20:23;;;;;;;5.10;0.80;;;;;;;8.59;55.12;99770.86;103575;1300;24227;-31
2022/04/11 11:22:56;;;;;;;1.80;0.40;;;;;;;8.69;53.16;99763.52;103548;1300;24221;-29
2022/04/11 11:25:22;;;;;;;1.20;0.40;;;;;;;9.42;50.65;99754.58;103574;1300;24005;-29
2022/04/11 11:27:49;;;;;;;2.10;0.40;;;;;;;9.86;48.71;99756.08;103584;1300;24213;-26
2022/04/11 11:30:15;;;;;;;0.80;0.40;;;;;;;10.46;48.42;99751.77;103592;1300;24247;-29